Time;durP1;ratioP1;P1;durP2;ratioP2;P2;SDS_P1;SDS_P2;PMS_P1;PMS_P2;Temp;Humidity;BMP_temperature;BMP_pressure;BME280_temperature;BME280_humidity;BME280_pressure;Samples;Min_cycle;Max_cycle;Signal;HPM_P1;HPM_P2
2023/07/10 00:01:33;;;;;;;7.10;4.90;;;;;;;;;;5107353;27;41525;-61
2023/07/10 00:04:02;;;;;;;5.85;4.00;;;;;;;;;;5107178;27;41692;-62
2023/07/10 00:06:30;;;;;;;4.93;3.63;;;;;;;;;;5106989;27;40563;-61
2023/07/10 00:08:58;;;;;;;5.18;4.20;;;;;;;;;;5106285;27;41638;-61
2023/07/10 00:11:27;;;;;;;6.97;4.80;;;;;;;;;;5107457;27;41597;-61
2023/07/10 00:13:56;;;;;;;5.15;4.65;;;;;;;;;;5107912;27;39981;-61
2023/07/10 00:16:25;;;;;;;5.60;5.00;;;;;;;;;;5106463;27;41778;-61
2023/07/10 00:18:53;;;;;;;6.72;5.13;;;;;;;;;;5107584;27;43112;-61
2023/07/10 00:21:20;;;;;;;7.00;5.18;;;;;;;;;;5107227;27;39994;-61
2023/07/10 00:23:48;;;;;;;6.93;5.22;;;;;;;;;;5107234;27;41262;-61
2023/07/10 00:26:18;;;;;;;6.95;5.35;;;;;;;;;;5107271;27;41048;-61
2023/07/10 00:28:46;;;;;;;5.70;5.10;;;;;;;;;;5107115;27;41972;-61
2023/07/10 00:31:16;;;;;;;7.88;5.20;;;;;;;;;;5105790;28;41407;-61
2023/07/10 00:33:47;;;;;;;5.57;4.80;;;;;;;;;;5107298;27;39967;-62
2023/07/10 00:36:22;;;;;;;6.82;4.65;;;;;;;;;;5104558;28;41047;-61
2023/07/10 00:38:50;;;;;;;6.43;5.80;;;;;;;;;;5103885;28;42462;-61
2023/07/10 00:41:18;;;;;;;7.40;5.85;;;;;;;;;;5106679;28;41890;-62
2023/07/10 00:43:46;;;;;;;7.10;5.80;;;;;;;;;;5107544;28;41876;-61
2023/07/10 00:46:16;;;;;;;6.65;5.10;;;;;;;;;;5107773;28;42803;-61
2023/07/10 00:48:45;;;;;;;7.53;4.97;;;;;;;;;;5107276;28;42388;-61
2023/07/10 00:51:15;;;;;;;8.82;5.50;;;;;;;;;;5105128;28;41048;-61
2023/07/10 00:53:43;;;;;;;6.70;5.70;;;;;;;;;;5106743;28;39972;-61
2023/07/10 00:56:12;;;;;;;8.02;5.47;;;;;;;;;;5105865;28;40142;-61
2023/07/10 00:58:41;;;;;;;7.47;5.30;;;;;;;;;;5105433;27;42164;-61
2023/07/10 01:01:09;;;;;;;7.68;5.72;;;;;;;;;;5122596;27;39259;-61
2023/07/10 01:03:39;;;;;;;6.93;5.35;;;;;;;;;;5104858;28;40537;-61
2023/07/10 01:06:08;;;;;;;7.00;6.07;;;;;;;;;;5106306;28;41615;-61
2023/07/10 01:08:36;;;;;;;6.35;5.55;;;;;;;;;;5106418;28;40711;-62
2023/07/10 01:11:04;;;;;;;7.78;5.95;;;;;;;;;;5105499;28;40700;-61
2023/07/10 01:13:32;;;;;;;7.93;5.75;;;;;;;;;;5105623;28;40675;-61
2023/07/10 01:16:00;;;;;;;7.63;5.55;;;;;;;;;;5105410;28;41803;-61
2023/07/10 01:18:29;;;;;;;7.78;5.68;;;;;;;;;;5104170;28;41324;-61
2023/07/10 01:21:07;;;;;;;7.78;5.97;;;;;;;;;;5106150;28;40462;-60
2023/07/10 01:23:35;;;;;;;8.40;5.75;;;;;;;;;;5105873;27;40060;-61
2023/07/10 01:26:03;;;;;;;6.07;5.30;;;;;;;;;;5110044;28;43596;-61
2023/07/10 01:28:33;;;;;;;7.97;5.40;;;;;;;;;;5108955;28;39765;-61
2023/07/10 01:31:01;;;;;;;6.85;5.57;;;;;;;;;;5110858;28;41663;-61
2023/07/10 01:33:31;;;;;;;7.82;5.97;;;;;;;;;;5109259;28;41010;-61
2023/07/10 01:35:59;;;;;;;8.55;6.03;;;;;;;;;;5110061;27;41759;-61
2023/07/10 01:38:30;;;;;;;8.35;5.78;;;;;;;;;;5109404;28;42861;-61
2023/07/10 01:40:58;;;;;;;9.07;6.40;;;;;;;;;;5107910;28;39826;-61
2023/07/10 01:43:26;;;;;;;8.32;5.75;;;;;;;;;;5109802;28;42037;-61
2023/07/10 01:45:56;;;;;;;7.22;5.75;;;;;;;;;;5109535;27;41847;-61
2023/07/10 01:48:24;;;;;;;6.35;5.65;;;;;;;;;;5108368;28;41564;-61
2023/07/10 01:50:52;;;;;;;7.57;6.05;;;;;;;;;;5109948;28;41685;-61
2023/07/10 01:53:20;;;;;;;7.97;6.32;;;;;;;;;;5109481;28;43152;-61
2023/07/10 01:55:50;;;;;;;6.68;5.35;;;;;;;;;;5108117;28;41365;-61
2023/07/10 01:58:18;;;;;;;7.40;5.88;;;;;;;;;;5108994;27;42778;-61
2023/07/10 02:00:46;;;;;;;7.30;5.65;;;;;;;;;;5108024;28;40844;-61
2023/07/10 02:03:15;;;;;;;7.43;6.03;;;;;;;;;;5108891;27;42093;-61
2023/07/10 02:05:45;;;;;;;6.22;5.53;;;;;;;;;;5107856;28;40714;-61
2023/07/10 02:08:13;;;;;;;6.70;5.68;;;;;;;;;;5107958;28;39958;-61
2023/07/10 02:10:41;;;;;;;9.18;6.57;;;;;;;;;;5107625;28;41412;-61
2023/07/10 02:13:13;;;;;;;6.70;5.88;;;;;;;;;;5110761;27;42763;-60
2023/07/10 02:15:41;;;;;;;9.45;6.30;;;;;;;;;;5108542;27;41856;-61
2023/07/10 02:18:10;;;;;;;7.57;5.72;;;;;;;;;;5107481;28;42378;-61
2023/07/10 02:20:39;;;;;;;8.82;5.88;;;;;;;;;;5109009;28;42301;-61
2023/07/10 02:23:07;;;;;;;6.72;5.88;;;;;;;;;;5109150;27;41669;-61
2023/07/10 02:25:36;;;;;;;6.30;5.13;;;;;;;;;;5108651;28;41650;-61
2023/07/10 02:28:04;;;;;;;7.65;5.57;;;;;;;;;;5109154;27;41374;-61
2023/07/10 02:30:33;;;;;;;6.75;5.60;;;;;;;;;;5107862;28;41355;-61
2023/07/10 02:33:01;;;;;;;7.55;5.35;;;;;;;;;;5109588;28;42152;-61
2023/07/10 02:35:29;;;;;;;8.02;5.10;;;;;;;;;;5107698;27;41352;-61
2023/07/10 02:37:59;;;;;;;6.25;4.88;;;;;;;;;;5107105;28;41356;-61
2023/07/10 02:40:27;;;;;;;7.13;5.53;;;;;;;;;;5108204;27;40673;-61
2023/07/10 02:42:55;;;;;;;6.22;5.18;;;;;;;;;;5108769;28;42198;-61
2023/07/10 02:45:23;;;;;;;6.72;5.65;;;;;;;;;;5107519;28;43234;-61
2023/07/10 02:47:53;;;;;;;7.95;5.65;;;;;;;;;;5109567;28;40234;-60
2023/07/10 02:50:21;;;;;;;6.65;5.43;;;;;;;;;;5108212;28;41892;-61
2023/07/10 02:52:49;;;;;;;8.00;5.57;;;;;;;;;;5107782;28;40935;-61
2023/07/10 02:55:17;;;;;;;6.63;5.00;;;;;;;;;;5108740;28;41365;-61
2023/07/10 02:57:45;;;;;;;6.00;4.90;;;;;;;;;;5108581;28;42184;-60
2023/07/10 03:00:13;;;;;;;8.90;5.57;;;;;;;;;;5108618;28;40095;-61
2023/07/10 03:02:42;;;;;;;7.82;4.97;;;;;;;;;;5124185;27;40634;-61
2023/07/10 03:05:11;;;;;;;7.95;5.38;;;;;;;;;;5108319;28;43159;-61
2023/07/10 03:07:39;;;;;;;7.32;4.63;;;;;;;;;;5108017;28;40714;-61
2023/07/10 03:10:08;;;;;;;5.32;4.60;;;;;;;;;;5108860;28;41169;-61
2023/07/10 03:12:36;;;;;;;7.10;5.07;;;;;;;;;;5106604;27;42974;-61
2023/07/10 03:15:05;;;;;;;8.18;4.95;;;;;;;;;;5100097;28;40621;-60
2023/07/10 03:17:33;;;;;;;6.50;4.57;;;;;;;;;;5087709;28;41323;-61
2023/07/10 03:20:01;;;;;;;5.53;4.43;;;;;;;;;;5103574;28;43107;-60
2023/07/10 03:22:30;;;;;;;7.78;5.40;;;;;;;;;;5107956;28;41704;-61
2023/07/10 03:25:00;;;;;;;6.78;4.70;;;;;;;;;;5107228;28;41830;-60
2023/07/10 03:27:29;;;;;;;6.78;4.45;;;;;;;;;;5106754;27;41418;-61
2023/07/10 03:29:57;;;;;;;5.60;4.07;;;;;;;;;;5107899;27;42565;-61
2023/07/10 03:32:25;;;;;;;6.28;4.72;;;;;;;;;;5107323;27;42271;-61
2023/07/10 03:34:55;;;;;;;6.93;4.22;;;;;;;;;;5107519;27;40963;-60
2023/07/10 03:37:23;;;;;;;6.05;4.55;;;;;;;;;;5107222;27;42496;-61
2023/07/10 03:39:52;;;;;;;6.75;4.90;;;;;;;;;;5107547;27;43072;-61
2023/07/10 03:42:20;;;;;;;6.50;4.70;;;;;;;;;;5107524;27;40309;-61
2023/07/10 03:44:48;;;;;;;6.75;4.80;;;;;;;;;;5107841;27;43330;-61
2023/07/10 03:47:16;;;;;;;5.30;4.15;;;;;;;;;;5106477;27;41411;-61
2023/07/10 03:49:44;;;;;;;7.35;4.53;;;;;;;;;;5107227;27;41767;-61
2023/07/10 03:52:12;;;;;;;8.48;4.70;;;;;;;;;;5108414;27;42731;-61
2023/07/10 03:54:40;;;;;;;5.22;4.55;;;;;;;;;;5106816;27;40028;-61
2023/07/10 03:57:10;;;;;;;8.32;4.70;;;;;;;;;;5107748;27;41213;-61
2023/07/10 03:59:37;;;;;;;4.60;4.15;;;;;;;;;;5106499;27;42068;-60
2023/07/10 04:02:06;;;;;;;5.95;4.70;;;;;;;;;;5107066;27;41062;-61
2023/07/10 04:04:33;;;;;;;8.43;5.03;;;;;;;;;;5106207;28;40101;-61
2023/07/10 04:07:01;;;;;;;6.18;4.63;;;;;;;;;;5107980;27;40398;-61
2023/07/10 04:09:29;;;;;;;7.78;4.43;;;;;;;;;;5106298;27;41675;-61
2023/07/10 04:11:57;;;;;;;4.97;4.47;;;;;;;;;;5107153;27;42992;-61
2023/07/10 04:14:27;;;;;;;6.03;4.28;;;;;;;;;;5107989;27;40341;-61
2023/07/10 04:16:55;;;;;;;7.22;5.13;;;;;;;;;;5104606;27;41995;-61
2023/07/10 04:19:23;;;;;;;8.07;4.68;;;;;;;;;;5089813;28;42229;-61
2023/07/10 04:21:51;;;;;;;7.65;4.65;;;;;;;;;;5102598;28;40538;-63
2023/07/10 04:24:19;;;;;;;5.28;4.40;;;;;;;;;;5107412;27;41748;-61
2023/07/10 04:26:47;;;;;;;6.30;4.40;;;;;;;;;;5107414;27;40308;-61
2023/07/10 04:29:15;;;;;;;5.32;4.20;;;;;;;;;;5105708;27;41628;-61
2023/07/10 04:31:44;;;;;;;5.65;4.38;;;;;;;;;;5107702;27;42599;-61
2023/07/10 04:34:12;;;;;;;6.20;4.18;;;;;;;;;;5091506;27;41071;-61
2023/07/10 04:36:40;;;;;;;4.88;4.10;;;;;;;;;;5092456;27;41562;-61
2023/07/10 04:39:08;;;;;;;6.40;4.57;;;;;;;;;;5088519;28;43117;-62
2023/07/10 04:41:37;;;;;;;4.65;4.03;;;;;;;;;;5106882;27;41085;-61
2023/07/10 04:44:05;;;;;;;5.93;3.97;;;;;;;;;;5091463;27;43238;-61
2023/07/10 04:46:33;;;;;;;5.53;3.78;;;;;;;;;;5086402;28;43216;-61
2023/07/10 04:49:03;;;;;;;4.43;3.88;;;;;;;;;;5102472;28;41871;-61
2023/07/10 04:51:31;;;;;;;6.72;4.13;;;;;;;;;;5106051;27;43079;-61
2023/07/10 04:53:59;;;;;;;5.85;3.70;;;;;;;;;;5106854;27;39918;-61
2023/07/10 04:56:27;;;;;;;4.53;3.40;;;;;;;;;;5106233;27;42673;-61
2023/07/10 04:58:56;;;;;;;4.57;3.83;;;;;;;;;;5107985;27;42140;-61
2023/07/10 05:01:24;;;;;;;4.68;3.53;;;;;;;;;;5108183;27;40498;-61
2023/07/10 05:03:52;;;;;;;6.78;4.03;;;;;;;;;;5090745;28;41125;-61
2023/07/10 05:06:22;;;;;;;5.22;3.40;;;;;;;;;;5089344;28;42727;-61
2023/07/10 05:08:51;;;;;;;5.88;3.30;;;;;;;;;;5090646;28;40972;-60
2023/07/10 05:11:19;;;;;;;3.60;3.15;;;;;;;;;;5108330;28;41777;-61
2023/07/10 05:13:47;;;;;;;5.05;3.30;;;;;;;;;;5110947;27;41282;-61
2023/07/10 05:16:15;;;;;;;6.35;3.60;;;;;;;;;;5110365;27;42423;-61
2023/07/10 05:18:43;;;;;;;5.45;3.42;;;;;;;;;;5109789;27;41714;-61
2023/07/10 05:21:11;;;;;;;5.40;3.38;;;;;;;;;;5111118;27;40956;-61
2023/07/10 05:23:41;;;;;;;5.25;3.35;;;;;;;;;;5106120;27;42064;-61
2023/07/10 05:26:09;;;;;;;4.13;3.25;;;;;;;;;;5098728;27;41619;-61
2023/07/10 05:28:37;;;;;;;4.35;3.20;;;;;;;;;;5088955;28;41356;-61
2023/07/10 05:31:06;;;;;;;4.35;3.33;;;;;;;;;;5107092;28;41904;-61
2023/07/10 05:33:34;;;;;;;3.17;2.78;;;;;;;;;;5109253;27;41033;-61
2023/07/10 05:36:03;;;;;;;3.85;3.00;;;;;;;;;;5109820;27;42568;-61
2023/07/10 05:38:32;;;;;;;3.97;2.78;;;;;;;;;;5109980;27;43128;-62
2023/07/10 05:41:01;;;;;;;3.75;2.88;;;;;;;;;;5109336;27;40361;-62
2023/07/10 05:43:29;;;;;;;5.88;2.83;;;;;;;;;;5109510;27;42261;-62
2023/07/10 05:45:57;;;;;;;3.30;2.83;;;;;;;;;;5097760;27;42239;-62
2023/07/10 05:48:26;;;;;;;3.35;2.67;;;;;;;;;;5088587;28;39841;-61
2023/07/10 05:50:54;;;;;;;3.50;2.58;;;;;;;;;;5107848;28;41231;-61
2023/07/10 05:53:22;;;;;;;4.78;2.78;;;;;;;;;;5101475;27;42364;-62
2023/07/10 05:55:50;;;;;;;4.18;2.72;;;;;;;;;;5098686;27;41218;-65
2023/07/10 05:58:19;;;;;;;3.95;2.53;;;;;;;;;;5101677;27;43250;-62
2023/07/10 06:00:48;;;;;;;3.70;2.63;;;;;;;;;;5101296;28;40259;-64
2023/07/10 06:03:16;;;;;;;3.17;2.10;;;;;;;;;;5104071;27;42279;-59
2023/07/10 06:05:48;;;;;;;3.35;2.28;;;;;;;;;;5106190;28;42775;-60
2023/07/10 06:08:16;;;;;;;5.40;2.70;;;;;;;;;;5092702;28;39991;-59
2023/07/10 06:10:44;;;;;;;4.47;2.88;;;;;;;;;;5102633;28;41747;-61
2023/07/10 06:13:12;;;;;;;5.25;2.70;;;;;;;;;;5105081;27;42152;-60
2023/07/10 06:15:42;;;;;;;5.70;2.80;;;;;;;;;;5100901;27;40349;-59
2023/07/10 06:18:10;;;;;;;4.15;2.55;;;;;;;;;;5109377;27;42441;-56
2023/07/10 06:20:38;;;;;;;6.97;3.13;;;;;;;;;;5100783;27;41985;-57
2023/07/10 06:23:06;;;;;;;3.63;2.67;;;;;;;;;;5108747;27;42693;-57
2023/07/10 06:25:34;;;;;;;4.88;2.50;;;;;;;;;;5107334;27;42833;-59
2023/07/10 06:28:02;;;;;;;12.95;3.28;;;;;;;;;;5107377;27;42403;-54
2023/07/10 06:30:30;;;;;;;4.85;3.20;;;;;;;;;;5105381;27;41489;-60
2023/07/10 06:32:59;;;;;;;7.32;3.00;;;;;;;;;;5107790;27;41773;-59
2023/07/10 06:35:27;;;;;;;5.45;2.70;;;;;;;;;;5106903;27;41522;-57
2023/07/10 06:37:55;;;;;;;8.45;3.08;;;;;;;;;;5107786;27;41758;-59
2023/07/10 06:40:23;;;;;;;4.85;2.65;;;;;;;;;;5107960;27;40011;-60
2023/07/10 06:42:51;;;;;;;5.53;2.83;;;;;;;;;;5108263;27;42179;-60
2023/07/10 06:45:21;;;;;;;9.32;2.65;;;;;;;;;;5107388;28;40813;-53
2023/07/10 06:47:49;;;;;;;6.97;2.40;;;;;;;;;;5109224;27;40094;-54
2023/07/10 06:50:19;;;;;;;7.35;2.72;;;;;;;;;;5106259;27;42318;-57
2023/07/10 06:52:47;;;;;;;3.90;2.22;;;;;;;;;;5099250;27;43212;-60
2023/07/10 06:55:15;;;;;;;8.95;2.58;;;;;;;;;;5098056;28;40614;-60
2023/07/10 06:57:43;;;;;;;4.78;2.20;;;;;;;;;;5088187;28;42342;-61
2023/07/10 07:00:12;;;;;;;8.43;2.58;;;;;;;;;;5095578;28;40451;-61
2023/07/10 07:02:40;;;;;;;4.10;2.40;;;;;;;;;;5108179;27;42625;-60
2023/07/10 07:05:08;;;;;;;7.78;2.70;;;;;;;;;;5108120;27;43311;-60
2023/07/10 07:07:38;;;;;;;2.78;1.85;;;;;;;;;;5108094;27;40344;-60
2023/07/10 07:10:07;;;;;;;3.67;1.92;;;;;;;;;;5107802;28;41279;-60
2023/07/10 07:12:35;;;;;;;6.75;2.35;;;;;;;;;;5107023;27;41760;-60
2023/07/10 07:15:04;;;;;;;6.30;2.05;;;;;;;;;;5108976;27;41366;-59
2023/07/10 07:17:32;;;;;;;9.30;2.72;;;;;;;;;;5108278;27;42306;-58
2023/07/10 07:19:59;;;;;;;5.25;2.40;;;;;;;;;;5108121;27;41998;-60
2023/07/10 07:22:27;;;;;;;6.03;3.00;;;;;;;;;;5107081;27;41634;-58
2023/07/10 07:24:57;;;;;;;5.05;2.25;;;;;;;;;;5108172;27;43119;-60
2023/07/10 07:27:25;;;;;;;4.63;2.40;;;;;;;;;;5107918;27;41600;-59
2023/07/10 07:29:53;;;;;;;7.20;2.33;;;;;;;;;;5092292;27;41217;-58
2023/07/10 07:32:21;;;;;;;4.07;2.40;;;;;;;;;;5101771;28;41877;-58
2023/07/10 07:34:49;;;;;;;6.18;2.33;;;;;;;;;;5102507;27;41171;-58
2023/07/10 07:37:17;;;;;;;3.65;2.33;;;;;;;;;;5101326;27;42557;-59
2023/07/10 07:39:45;;;;;;;10.68;2.67;;;;;;;;;;5100330;28;42191;-58
2023/07/10 07:42:15;;;;;;;6.45;2.60;;;;;;;;;;5101514;28;42120;-59
2023/07/10 07:44:43;;;;;;;5.78;2.53;;;;;;;;;;5101537;28;42914;-58
2023/07/10 07:47:11;;;;;;;8.32;2.33;;;;;;;;;;5100402;27;41167;-58
2023/07/10 07:49:39;;;;;;;6.93;2.17;;;;;;;;;;5101803;27;41815;-59
2023/07/10 07:52:07;;;;;;;5.05;1.90;;;;;;;;;;5101123;28;42084;-58
2023/07/10 07:54:35;;;;;;;4.60;2.05;;;;;;;;;;5100378;27;41259;-56
2023/07/10 07:57:03;;;;;;;5.57;2.10;;;;;;;;;;5102787;28;42224;-57
2023/07/10 07:59:32;;;;;;;4.95;2.15;;;;;;;;;;5100206;27;42182;-58
2023/07/10 08:02:00;;;;;;;3.00;1.65;;;;;;;;;;5103991;27;40060;-58
2023/07/10 08:04:28;;;;;;;7.63;2.50;;;;;;;;;;5107628;27;42949;-59
2023/07/10 08:06:57;;;;;;;6.18;2.08;;;;;;;;;;5107049;27;42352;-58
2023/07/10 08:09:25;;;;;;;7.20;2.08;;;;;;;;;;5095487;27;41918;-56
2023/07/10 08:11:53;;;;;;;10.38;2.00;;;;;;;;;;5101163;27;43343;-55
2023/07/10 08:14:21;;;;;;;8.05;2.30;;;;;;;;;;5104200;27;41479;-59
2023/07/10 08:16:50;;;;;;;5.95;2.33;;;;;;;;;;5103132;27;41441;-59
2023/07/10 08:19:18;;;;;;;6.05;1.80;;;;;;;;;;5102344;27;42815;-59
2023/07/10 08:21:46;;;;;;;3.70;1.58;;;;;;;;;;5100930;27;39794;-59
2023/07/10 08:24:14;;;;;;;6.72;2.35;;;;;;;;;;5101109;28;41657;-60
2023/07/10 08:26:42;;;;;;;6.45;2.20;;;;;;;;;;5106281;27;33570;-60
2023/07/10 08:29:31;;;;;;;4.18;2.30;;;;;;;;;;5103101;28;41743;-59
2023/07/10 08:32:01;;;;;;;8.27;2.20;;;;;;;;;;5097265;27;42393;-60
2023/07/10 08:34:29;;;;;;;6.03;2.15;;;;;;;;;;5105301;28;41356;-60
2023/07/10 08:36:58;;;;;;;3.88;1.73;;;;;;;;;;5106382;27;41565;-60
2023/07/10 08:39:26;;;;;;;5.22;1.88;;;;;;;;;;5102854;28;41728;-60
2023/07/10 08:41:55;;;;;;;5.00;1.40;;;;;;;;;;5105858;28;41267;-60
2023/07/10 08:44:23;;;;;;;7.07;1.55;;;;;;;;;;5106226;27;42210;-60
2023/07/10 08:46:51;;;;;;;4.53;1.70;;;;;;;;;;5104672;28;42504;-60
2023/07/10 08:49:24;;;;;;;4.15;1.30;;;;;;;;;;5105962;27;42443;-60
2023/07/10 08:51:53;;;;;;;6.45;1.73;;;;;;;;;;5106156;27;42138;-60
2023/07/10 08:54:21;;;;;;;5.97;1.70;;;;;;;;;;5106058;27;40304;-60
2023/07/10 08:56:50;;;;;;;6.63;1.67;;;;;;;;;;5106234;27;41752;-63
2023/07/10 08:59:35;;;;;;;9.55;2.08;;;;;;;;;;5103831;27;42175;-63
2023/07/10 09:02:04;;;;;;;8.32;2.00;;;;;;;;;;5103505;27;41374;-60
2023/07/10 09:04:33;;;;;;;3.83;1.60;;;;;;;;;;5105354;27;41918;-60
2023/07/10 09:07:01;;;;;;;5.68;1.65;;;;;;;;;;5102986;27;41746;-60
2023/07/10 09:09:32;;;;;;;8.48;2.33;;;;;;;;;;5104749;28;40465;-60
2023/07/10 09:12:02;;;;;;;5.07;1.63;;;;;;;;;;5104045;28;41640;-60
2023/07/10 09:14:34;;;;;;;6.63;1.98;;;;;;;;;;5106282;27;39563;-60
2023/07/10 09:17:02;;;;;;;4.68;1.63;;;;;;;;;;5106459;27;41303;-60
2023/07/10 09:19:30;;;;;;;3.97;1.48;;;;;;;;;;5101894;28;42047;-60
2023/07/10 09:22:00;;;;;;;4.32;1.63;;;;;;;;;;5106494;27;41363;-60
2023/07/10 09:24:28;;;;;;;6.35;1.80;;;;;;;;;;5102866;27;42309;-61
2023/07/10 09:26:56;;;;;;;8.75;2.05;;;;;;;;;;5106290;27;41659;-60
2023/07/10 09:29:29;;;;;;;3.58;1.42;;;;;;;;;;5105077;27;40766;-61
2023/07/10 09:31:59;;;;;;;4.40;1.67;;;;;;;;;;5100926;28;41760;-59
2023/07/10 09:34:28;;;;;;;10.20;2.13;;;;;;;;;;5106164;27;41542;-60
2023/07/10 09:36:56;;;;;;;4.93;1.83;;;;;;;;;;5104140;28;41205;-60
2023/07/10 09:39:26;;;;;;;6.47;2.13;;;;;;;;;;5102426;27;42116;-60
2023/07/10 09:41:55;;;;;;;8.55;2.20;;;;;;;;;;5100017;28;41276;-60
2023/07/10 09:44:23;;;;;;;12.98;2.47;;;;;;;;;;5105940;27;42665;-62
2023/07/10 09:46:51;;;;;;;9.73;2.25;;;;;;;;;;5100850;27;42349;-60
2023/07/10 09:49:19;;;;;;;5.50;1.60;;;;;;;;;;5104344;27;41009;-60
2023/07/10 09:51:48;;;;;;;6.35;2.08;;;;;;;;;;5107279;28;41819;-61
2023/07/10 09:54:16;;;;;;;4.60;1.70;;;;;;;;;;5106020;28;43045;-60
2023/07/10 09:56:45;;;;;;;7.53;1.88;;;;;;;;;;5109486;27;42490;-60
2023/07/10 09:59:17;;;;;;;7.35;1.73;;;;;;;;;;5101285;28;42735;-61
2023/07/10 10:01:46;;;;;;;5.47;1.60;;;;;;;;;;5101022;28;42504;-60
2023/07/10 10:04:15;;;;;;;2.92;1.45;;;;;;;;;;5109638;27;42189;-60
2023/07/10 10:06:43;;;;;;;5.70;1.83;;;;;;;;;;5108945;27;43474;-60
2023/07/10 10:09:15;;;;;;;8.27;2.78;;;;;;;;;;5108633;27;40462;-60
2023/07/10 10:11:44;;;;;;;9.07;2.22;;;;;;;;;;5106989;27;41447;-61
2023/07/10 10:14:15;;;;;;;6.15;1.75;;;;;;;;;;5108419;27;43104;-60
2023/07/10 10:16:46;;;;;;;4.85;2.20;;;;;;;;;;5110148;27;41914;-60
2023/07/10 10:19:16;;;;;;;7.20;1.95;;;;;;;;;;5109344;27;42631;-60
2023/07/10 10:21:44;;;;;;;5.15;1.60;;;;;;;;;;5108012;27;41119;-60
2023/07/10 10:24:12;;;;;;;6.40;1.90;;;;;;;;;;5108610;28;41642;-61
2023/07/10 10:26:44;;;;;;;5.20;1.85;;;;;;;;;;5108821;27;42231;-61
2023/07/10 10:29:23;;;;;;;3.95;1.65;;;;;;;;;;5108219;27;41428;-60
2023/07/10 10:31:53;;;;;;;5.85;2.00;;;;;;;;;;5108106;27;41199;-60
2023/07/10 10:34:22;;;;;;;6.40;1.85;;;;;;;;;;5104775;28;42280;-60
2023/07/10 10:36:53;;;;;;;4.25;1.50;;;;;;;;;;5108505;28;41247;-60
2023/07/10 10:39:24;;;;;;;5.82;1.75;;;;;;;;;;5105120;28;42121;-60
2023/07/10 10:41:54;;;;;;;4.15;2.08;;;;;;;;;;5100816;27;40130;-61
2023/07/10 10:44:32;;;;;;;5.05;1.42;;;;;;;;;;5093549;27;42496;-61
2023/07/10 10:47:04;;;;;;;2.28;1.10;;;;;;;;;;5098545;27;43407;-60
2023/07/10 10:49:38;;;;;;;4.80;1.63;;;;;;;;;;5092658;28;40264;-61
2023/07/10 10:52:09;;;;;;;4.75;1.25;;;;;;;;;;5108298;27;41242;-60
2023/07/10 10:54:40;;;;;;;4.07;1.55;;;;;;;;;;5107364;27;42730;-61
2023/07/10 10:57:13;;;;;;;3.72;1.83;;;;;;;;;;5107230;27;41142;-60
2023/07/10 10:59:45;;;;;;;3.70;1.63;;;;;;;;;;5108966;27;41660;-61
2023/07/10 11:02:17;;;;;;;5.70;1.52;;;;;;;;;;5109016;27;41069;-60
2023/07/10 11:04:46;;;;;;;3.30;1.35;;;;;;;;;;5108353;27;42589;-61
2023/07/10 11:07:14;;;;;;;2.55;1.08;;;;;;;;;;5108952;27;42804;-61
2023/07/10 11:09:43;;;;;;;4.03;1.27;;;;;;;;;;5109029;27;40969;-61
2023/07/10 11:12:14;;;;;;;3.35;1.13;;;;;;;;;;5107970;27;41720;-60
2023/07/10 11:14:44;;;;;;;3.88;1.65;;;;;;;;;;5108606;27;42907;-60
2023/07/10 11:17:12;;;;;;;6.07;1.63;;;;;;;;;;5107582;27;40264;-61
2023/07/10 11:19:41;;;;;;;3.58;1.40;;;;;;;;;;5108104;27;42081;-61
2023/07/10 11:22:12;;;;;;;2.97;0.95;;;;;;;;;;5108814;27;42051;-61
2023/07/10 11:24:40;;;;;;;3.58;1.73;;;;;;;;;;5107442;27;41720;-61
2023/07/10 11:27:11;;;;;;;4.47;1.58;;;;;;;;;;5108713;27;43277;-61
2023/07/10 11:29:41;;;;;;;3.10;1.30;;;;;;;;;;5107697;27;39932;-61
2023/07/10 11:32:15;;;;;;;3.42;1.45;;;;;;;;;;5108083;27;41643;-61
2023/07/10 11:35:00;;;;;;;4.20;1.20;;;;;;;;;;5108315;27;43166;-61
2023/07/10 11:38:00;;;;;;;4.82;1.60;;;;;;;;;;5108595;27;40925;-61
2023/07/10 11:40:41;;;;;;;4.15;1.50;;;;;;;;;;5105730;28;41897;-61
2023/07/10 11:43:28;;;;;;;4.85;1.27;;;;;;;;;;5108476;27;41854;-61
2023/07/10 11:46:03;;;;;;;3.88;1.20;;;;;;;;;;5108054;27;40801;-61
2023/07/10 11:48:39;;;;;;;3.67;1.40;;;;;;;;;;5107751;27;42174;-61
2023/07/10 11:51:22;;;;;;;3.53;1.40;;;;;;;;;;5107771;27;41694;-61
2023/07/10 11:54:00;;;;;;;3.25;1.35;;;;;;;;;;5107991;27;41278;-61
2023/07/10 11:56:28;;;;;;;3.78;1.60;;;;;;;;;;5107694;27;43070;-60
2023/07/10 11:58:58;;;;;;;3.67;1.40;;;;;;;;;;5108208;27;40434;-61
2023/07/10 12:01:26;;;;;;;1.70;1.00;;;;;;;;;;5107194;27;42292;-61
2023/07/10 12:03:56;;;;;;;2.85;1.35;;;;;;;;;;5107807;27;42033;-61
2023/07/10 12:06:25;;;;;;;4.15;1.25;;;;;;;;;;5106889;27;40527;-61
2023/07/10 12:08:53;;;;;;;3.83;1.30;;;;;;;;;;5108106;27;41612;-63
2023/07/10 12:11:28;;;;;;;3.03;1.60;;;;;;;;;;5106811;27;40438;-60
2023/07/10 12:14:03;;;;;;;4.70;1.27;;;;;;;;;;5100785;27;41359;-61
2023/07/10 12:16:31;;;;;;;10.27;2.13;;;;;;;;;;5099026;28;43141;-62
2023/07/10 12:19:14;;;;;;;7.35;2.30;;;;;;;;;;5099675;27;41926;-61
2023/07/10 12:21:43;;;;;;;5.53;1.85;;;;;;;;;;5102395;27;41318;-61
2023/07/10 12:24:12;;;;;;;5.40;1.75;;;;;;;;;;5099697;28;43168;-62
2023/07/10 12:26:40;;;;;;;7.43;2.22;;;;;;;;;;5100574;28;41095;-61
2023/07/10 12:29:11;;;;;;;4.28;1.40;;;;;;;;;;5097644;27;42348;-62
2023/07/10 12:31:40;;;;;;;4.65;1.60;;;;;;;;;;5097432;28;42687;-61
2023/07/10 12:34:08;;;;;;;7.53;2.35;;;;;;;;;;5107836;27;41889;-61
2023/07/10 12:36:38;;;;;;;5.15;2.03;;;;;;;;;;5106743;27;42022;-59
2023/07/10 12:39:06;;;;;;;4.25;1.67;;;;;;;;;;5107690;27;40376;-57
2023/07/10 12:41:35;;;;;;;5.78;2.15;;;;;;;;;;5101863;28;41515;-59
2023/07/10 12:44:03;;;;;;;6.60;1.92;;;;;;;;;;5106296;27;42243;-59
2023/07/10 12:46:31;;;;;;;7.95;1.90;;;;;;;;;;5106528;27;40939;-58
2023/07/10 12:49:00;;;;;;;4.43;1.60;;;;;;;;;;5106182;27;41726;-59
2023/07/10 12:51:29;;;;;;;5.03;1.70;;;;;;;;;;5106368;27;43140;-60
2023/07/10 12:53:59;;;;;;;7.95;1.90;;;;;;;;;;5107039;27;42068;-57
2023/07/10 12:56:28;;;;;;;10.52;2.63;;;;;;;;;;5104677;27;43314;-59
2023/07/10 12:58:57;;;;;;;3.58;1.38;;;;;;;;;;5106780;27;40613;-58
2023/07/10 13:01:27;;;;;;;5.85;1.92;;;;;;;;;;5105947;27;41805;-59
2023/07/10 13:03:58;;;;;;;4.53;1.63;;;;;;;;;;5105819;27;43329;-59
2023/07/10 13:06:27;;;;;;;7.65;2.17;;;;;;;;;;5105866;27;40632;-59
2023/07/10 13:08:55;;;;;;;5.55;2.22;;;;;;;;;;5107239;27;41732;-59
2023/07/10 13:11:25;;;;;;;6.93;2.38;;;;;;;;;;5102817;28;43067;-58
2023/07/10 13:14:09;;;;;;;9.27;1.92;;;;;;;;;;5102869;28;41309;-59
2023/07/10 13:16:42;;;;;;;5.97;1.88;;;;;;;;;;5097838;28;43505;-62
2023/07/10 13:19:10;;;;;;;6.05;1.88;;;;;;;;;;5107289;27;40827;-65
2023/07/10 13:21:38;;;;;;;5.60;2.13;;;;;;;;;;5110093;27;41678;-63
2023/07/10 13:24:06;;;;;;;7.30;1.88;;;;;;;;;;5110088;27;42107;-62
2023/07/10 13:26:36;;;;;;;5.05;1.70;;;;;;;;;;5109243;27;41381;-62
2023/07/10 13:29:05;;;;;;;8.50;2.15;;;;;;;;;;5109344;27;42590;-64
2023/07/10 13:31:33;;;;;;;4.22;1.35;;;;;;;;;;5108849;27;42298;-61
2023/07/10 13:34:01;;;;;;;6.25;1.67;;;;;;;;;;5109385;27;41943;-63
2023/07/10 13:36:29;;;;;;;5.82;1.60;;;;;;;;;;5089802;28;41059;-59
2023/07/10 13:38:57;;;;;;;5.75;1.65;;;;;;;;;;5104680;28;40140;-59
2023/07/10 13:41:26;;;;;;;5.88;1.65;;;;;;;;;;5109761;27;41804;-60
2023/07/10 13:43:55;;;;;;;4.82;1.88;;;;;;;;;;5110996;27;42178;-62
2023/07/10 13:46:24;;;;;;;4.78;1.80;;;;;;;;;;5108671;27;40811;-59
2023/07/10 13:48:52;;;;;;;3.45;1.50;;;;;;;;;;5107690;27;41212;-60
2023/07/10 13:51:21;;;;;;;6.57;2.20;;;;;;;;;;5097541;28;42208;-61
2023/07/10 13:53:49;;;;;;;4.88;1.92;;;;;;;;;;5094157;27;40415;-62
2023/07/10 13:56:18;;;;;;;8.05;1.98;;;;;;;;;;5097012;27;42558;-64
2023/07/10 13:58:46;;;;;;;8.32;2.22;;;;;;;;;;5109210;27;41441;-65
2023/07/10 14:01:15;;;;;;;28.83;2.72;;;;;;;;;;5109772;27;42297;-65
2023/07/10 14:03:43;;;;;;;14.23;2.22;;;;;;;;;;5109780;27;43149;-64
2023/07/10 14:06:21;;;;;;;8.68;1.80;;;;;;;;;;5107974;27;41007;-64
2023/07/10 14:08:49;;;;;;;8.20;2.35;;;;;;;;;;5106486;27;41728;-64
2023/07/10 14:11:18;;;;;;;10.02;2.00;;;;;;;;;;5104370;27;43443;-64
2023/07/10 14:13:46;;;;;;;10.90;1.77;;;;;;;;;;5105570;27;40525;-64
2023/07/10 14:16:16;;;;;;;8.05;1.75;;;;;;;;;;5108607;27;42029;-63
2023/07/10 14:18:44;;;;;;;9.05;2.08;;;;;;;;;;5109481;27;42276;-65
2023/07/10 14:21:12;;;;;;;15.23;3.13;;;;;;;;;;5108518;27;39990;-65
2023/07/10 14:23:40;;;;;;;10.48;2.25;;;;;;;;;;5108884;27;41712;-64
2023/07/10 14:26:10;;;;;;;16.08;2.58;;;;;;;;;;5108634;27;40646;-64
2023/07/10 14:28:39;;;;;;;10.05;2.38;;;;;;;;;;5108092;27;41296;-64
2023/07/10 14:31:09;;;;;;;17.85;2.75;;;;;;;;;;5109428;27;43191;-64
2023/07/10 14:33:38;;;;;;;7.30;1.80;;;;;;;;;;5108626;27;39779;-66
2023/07/10 14:36:10;;;;;;;9.20;1.88;;;;;;;;;;5092202;28;42767;-66
2023/07/10 14:38:38;;;;;;;12.23;2.15;;;;;;;;;;5108313;27;42051;-63
2023/07/10 14:41:06;;;;;;;8.57;1.90;;;;;;;;;;5104791;27;41427;-64
2023/07/10 14:43:36;;;;;;;10.13;2.17;;;;;;;;;;5091115;28;41090;-65
2023/07/10 14:46:04;;;;;;;11.75;2.00;;;;;;;;;;5094150;28;41488;-62
2023/07/10 14:48:32;;;;;;;6.30;2.10;;;;;;;;;;5103706;28;42644;-63
2023/07/10 14:51:02;;;;;;;9.38;1.60;;;;;;;;;;5108392;27;42247;-63
2023/07/10 14:53:30;;;;;;;3.95;1.70;;;;;;;;;;5097878;27;39685;-63
2023/07/10 14:55:58;;;;;;;4.82;1.88;;;;;;;;;;5103352;27;42291;-63